createdAt,value
2022-08-17T00:00:43.353Z,5.35
2022-08-17T00:03:11.461Z,6.78
2022-08-17T00:05:46.074Z,6.45
2022-08-17T00:08:16.004Z,5.93
2022-08-17T00:10:46.641Z,6.00
2022-08-17T00:13:20.229Z,5.45
2022-08-17T00:15:49.118Z,5.68
2022-08-17T00:19:01.610Z,5.80
2022-08-17T00:21:10.563Z,6.28
2022-08-17T00:23:46.246Z,6.32
2022-08-17T00:26:34.480Z,6.00
2022-08-17T00:29:09.919Z,5.20
2022-08-17T00:31:48.312Z,5.50
2022-08-17T00:34:17.111Z,5.85
2022-08-17T00:36:45.486Z,6.20
2022-08-17T00:39:14.703Z,6.65
2022-08-17T00:41:43.388Z,8.07
2022-08-17T00:44:13.169Z,8.07
2022-08-17T00:46:43.947Z,7.00
2022-08-17T00:49:15.739Z,6.95
2022-08-17T00:51:48.715Z,8.27
2022-08-17T00:54:22.880Z,6.22
2022-08-17T00:56:58.354Z,6.35
2022-08-17T00:59:33.550Z,7.30
2022-08-17T01:02:02.862Z,7.68
2022-08-17T01:04:32.978Z,7.50
2022-08-17T01:07:02.943Z,7.10
2022-08-17T01:09:32.464Z,7.63
2022-08-17T01:12:01.545Z,7.30
2022-08-17T01:14:31.302Z,6.53
2022-08-17T01:17:00.216Z,7.43
2022-08-17T01:19:34.275Z,8.00
2022-08-17T01:22:18.569Z,7.60
2022-08-17T01:24:53.524Z,7.18
2022-08-17T01:27:22.432Z,9.40
2022-08-17T01:29:58.595Z,8.70
2022-08-17T01:32:30.344Z,8.98
2022-08-17T01:35:01.627Z,9.93
2022-08-17T01:37:35.325Z,8.13
2022-08-17T01:40:08.659Z,8.38
2022-08-17T01:42:44.335Z,9.15
2022-08-17T01:45:18.027Z,8.93
2022-08-17T01:47:46.802Z,8.35
2022-08-17T01:50:22.355Z,9.18
2022-08-17T01:52:57.506Z,9.77
2022-08-17T01:55:32.351Z,9.43
2022-08-17T01:58:02.060Z,9.43
2022-08-17T02:01:00.279Z,9.45
2022-08-17T02:03:19.077Z,8.63
2022-08-17T02:05:48.475Z,8.40
2022-08-17T02:08:20.404Z,9.77
2022-08-17T02:10:50.602Z,9.07
2022-08-17T02:13:20.550Z,8.95
2022-08-17T02:15:48.904Z,10.90
2022-08-17T02:18:17.573Z,9.85
2022-08-17T02:20:45.949Z,10.40
2022-08-17T02:23:14.845Z,10.52
2022-08-17T02:25:48.731Z,9.77
2022-08-17T02:28:17.648Z,10.38
2022-08-17T02:31:01.866Z,9.73
2022-08-17T02:33:42.972Z,9.68
2022-08-17T02:36:13.877Z,9.77
2022-08-17T02:38:43.575Z,10.43
2022-08-17T02:41:13.708Z,11.60
2022-08-17T02:43:42.416Z,14.65
2022-08-17T02:46:12.695Z,10.93
2022-08-17T02:48:41.097Z,11.45
2022-08-17T02:51:09.472Z,12.48
2022-08-17T02:53:37.853Z,12.57
2022-08-17T02:56:06.545Z,12.88
2022-08-17T02:58:36.586Z,12.25
2022-08-17T03:01:07.784Z,12.90
2022-08-17T03:03:37.800Z,13.30
2022-08-17T03:06:07.686Z,13.65
2022-08-17T03:08:37.439Z,13.15
2022-08-17T03:11:06.389Z,13.15
2022-08-17T03:13:35.990Z,12.63
2022-08-17T03:16:04.493Z,11.85
2022-08-17T03:18:32.786Z,11.38
2022-08-17T03:21:04.380Z,11.32
2022-08-17T03:23:33.762Z,10.40
2022-08-17T03:26:02.208Z,11.25
2022-08-17T03:28:30.962Z,12.32
2022-08-17T03:31:00.558Z,10.90
2022-08-17T03:33:28.875Z,10.23
2022-08-17T03:35:57.324Z,10.20
2022-08-17T03:38:26.287Z,9.98
2022-08-17T03:40:59.416Z,10.60
2022-08-17T03:43:30.930Z,10.52
2022-08-17T03:46:27.591Z,11.38
2022-08-17T03:49:15.418Z,10.00
2022-08-17T03:52:00.206Z,10.60
2022-08-17T03:54:46.054Z,9.82
2022-08-17T03:57:14.690Z,11.57
2022-08-17T03:59:43.530Z,12.07
2022-08-17T04:02:19.624Z,11.93
2022-08-17T04:04:50.750Z,13.93
2022-08-17T04:07:20.024Z,14.02
2022-08-17T04:09:48.369Z,13.32
2022-08-17T04:12:18.609Z,11.80
2022-08-17T04:14:52.625Z,13.50
2022-08-17T04:17:26.897Z,11.15
2022-08-17T04:19:56.577Z,10.00
2022-08-17T04:22:32.421Z,9.65
2022-08-17T04:25:09.859Z,8.35
2022-08-17T04:27:38.749Z,7.53
2022-08-17T04:30:09.153Z,8.68
2022-08-17T04:33:10.942Z,9.32
2022-08-17T04:35:43.079Z,10.05
2022-08-17T04:38:14.903Z,10.57
2022-08-17T04:41:04.096Z,11.55
2022-08-17T04:43:35.339Z,10.77
2022-08-17T04:46:08.149Z,11.80
2022-08-17T04:48:42.672Z,13.35
2022-08-17T04:51:14.351Z,12.52
2022-08-17T04:53:45.929Z,11.38
2022-08-17T04:56:23.797Z,12.48
2022-08-17T04:58:55.782Z,13.88
2022-08-17T05:01:26.410Z,12.85
2022-08-17T05:03:59.252Z,12.23
2022-08-17T05:06:28.826Z,11.65
2022-08-17T05:08:58.750Z,11.65
2022-08-17T05:11:29.398Z,11.57
2022-08-17T05:13:59.757Z,12.05
2022-08-17T05:16:30.410Z,10.18
2022-08-17T05:19:00.490Z,11.07
2022-08-17T05:21:29.620Z,11.25
2022-08-17T05:23:59.534Z,11.13
2022-08-17T05:26:29.461Z,13.23
2022-08-17T05:29:03.003Z,12.63
2022-08-17T05:31:32.625Z,13.20
2022-08-17T05:34:02.333Z,13.35
2022-08-17T05:36:43.579Z,12.32
2022-08-17T05:39:16.369Z,11.38
2022-08-17T05:41:47.886Z,11.45
2022-08-17T05:44:16.794Z,13.20
2022-08-17T05:46:50.861Z,12.23
2022-08-17T05:49:27.519Z,12.98
2022-08-17T05:52:22.498Z,13.88
2022-08-17T05:55:10.138Z,12.30
2022-08-17T05:57:47.607Z,13.18
2022-08-17T06:00:30.070Z,11.73
2022-08-17T06:03:20.352Z,12.98
2022-08-17T06:06:05.627Z,12.13
2022-08-17T06:08:54.028Z,11.23
2022-08-17T06:11:32.888Z,11.90
2022-08-17T06:14:35.262Z,13.30
2022-08-17T06:17:07.585Z,11.98
2022-08-17T06:19:41.481Z,11.80
2022-08-17T06:22:15.758Z,10.25
2022-08-17T06:24:51.592Z,9.70
2022-08-17T06:27:26.645Z,8.60
2022-08-17T06:29:59.689Z,10.00
2022-08-17T06:32:28.495Z,9.90
2022-08-17T06:34:57.465Z,10.27
2022-08-17T06:38:00.564Z,9.77
2022-08-17T06:41:02.798Z,10.30
2022-08-17T06:43:58.227Z,10.13
2022-08-17T06:46:36.808Z,11.55
2022-08-17T06:49:17.744Z,11.70
2022-08-17T06:51:53.843Z,13.30
2022-08-17T06:54:36.191Z,8.65
2022-08-17T06:57:20.261Z,9.32
2022-08-17T06:59:56.421Z,9.15
2022-08-17T07:02:51.094Z,7.85
2022-08-17T07:05:24.947Z,8.00
2022-08-17T07:08:04.445Z,8.23
2022-08-17T07:10:44.988Z,8.13
2022-08-17T07:13:25.668Z,8.02
2022-08-17T07:16:03.329Z,8.75
2022-08-17T07:18:33.166Z,8.73
2022-08-17T07:21:14.163Z,9.13
2022-08-17T07:24:11.439Z,9.32
2022-08-17T07:27:14.807Z,10.48
2022-08-17T07:29:50.518Z,9.50
2022-08-17T07:32:26.810Z,9.23
2022-08-17T07:35:11.872Z,9.10
2022-08-17T07:37:43.277Z,9.20
2022-08-17T07:40:26.945Z,9.63
2022-08-17T07:43:21.912Z,9.95
2022-08-17T07:46:34.777Z,10.63
2022-08-17T07:49:27.383Z,9.25
2022-08-17T07:52:23.936Z,8.40
2022-08-17T07:54:57.261Z,10.60
2022-08-17T07:57:36.495Z,10.00
2022-08-17T08:00:31.420Z,11.60
2022-08-17T08:03:17.491Z,10.55
2022-08-17T08:05:57.639Z,11.23
2022-08-17T08:08:34.977Z,11.88
2022-08-17T08:11:09.067Z,13.05
2022-08-17T08:13:42.801Z,11.07
2022-08-17T08:16:25.867Z,10.95
2022-08-17T08:18:58.417Z,11.15
2022-08-17T08:21:44.169Z,11.15
2022-08-17T08:24:37.083Z,11.35
2022-08-17T08:27:27.221Z,9.48
2022-08-17T08:30:06.489Z,9.63
2022-08-17T08:33:08.473Z,9.35
2022-08-17T08:35:52.270Z,9.77
2022-08-17T08:38:34.519Z,8.75
2022-08-17T08:41:24.092Z,9.20
2022-08-17T08:44:04.764Z,12.20
2022-08-17T08:46:46.162Z,11.63
2022-08-17T08:50:04.469Z,10.98
2022-08-17T08:53:11.632Z,8.55
2022-08-17T08:55:52.477Z,9.20
2022-08-17T08:58:41.969Z,11.40
2022-08-17T09:01:20.259Z,9.77
2022-08-17T09:04:23.262Z,11.90
2022-08-17T09:07:10.123Z,12.85
2022-08-17T09:09:54.179Z,11.02
2022-08-17T09:12:37.822Z,11.38
2022-08-17T09:15:13.280Z,11.52
2022-08-17T09:18:03.545Z,11.82
2022-08-17T09:20:50.150Z,13.25
2022-08-17T09:23:33.486Z,12.90
2022-08-17T09:26:10.675Z,12.55
2022-08-17T09:28:42.902Z,12.07
2022-08-17T09:31:16.319Z,11.77
2022-08-17T09:33:49.639Z,9.50
2022-08-17T09:36:26.319Z,10.45
2022-08-17T09:39:02.857Z,10.95
2022-08-17T09:41:48.939Z,11.10
2022-08-17T09:44:26.022Z,11.18
2022-08-17T09:47:00.414Z,10.15
2022-08-17T09:49:35.145Z,12.20
2022-08-17T09:52:11.501Z,11.52
2022-08-17T09:54:42.423Z,11.55
2022-08-17T09:57:30.813Z,10.95
2022-08-17T10:00:18.947Z,11.45
2022-08-17T10:03:21.033Z,10.00
2022-08-17T10:05:58.028Z,8.20
2022-08-17T10:08:38.085Z,10.20
2022-08-17T10:11:50.371Z,10.35
2022-08-17T10:14:37.681Z,8.63
2022-08-17T10:17:22.012Z,11.75
2022-08-17T10:20:00.334Z,9.55
2022-08-17T10:22:55.031Z,10.85
2022-08-17T10:25:54.635Z,10.07
2022-08-17T10:28:31.313Z,9.50
2022-08-17T10:31:33.261Z,10.00
2022-08-17T10:34:10.203Z,10.35
2022-08-17T10:36:48.253Z,8.98
2022-08-17T10:39:31.646Z,8.38
2022-08-17T10:42:12.162Z,10.93
2022-08-17T10:44:50.190Z,9.38
2022-08-17T10:47:20.295Z,10.52
2022-08-17T10:49:53.762Z,10.40
2022-08-17T10:52:48.676Z,9.57
2022-08-17T10:55:20.346Z,10.13
2022-08-17T10:57:51.162Z,10.38
2022-08-17T11:01:03.939Z,8.10
2022-08-17T11:03:33.186Z,9.13
2022-08-17T11:06:15.506Z,9.98
2022-08-17T11:09:27.706Z,9.07
2022-08-17T11:12:13.161Z,8.68
2022-08-17T11:15:10.399Z,8.00
2022-08-17T11:18:11.119Z,9.73
2022-08-17T11:21:14.094Z,9.82
2022-08-17T11:24:16.581Z,10.07
2022-08-17T11:27:02.308Z,9.88
2022-08-17T11:29:36.474Z,8.73
2022-08-17T11:32:13.307Z,8.80
2022-08-17T11:34:44.889Z,9.63
2022-08-17T11:37:40.714Z,12.07
2022-08-17T11:40:38.471Z,9.98
2022-08-17T11:43:48.383Z,10.05
2022-08-17T11:46:51.827Z,12.18
2022-08-17T11:49:47.615Z,11.40
2022-08-17T11:52:39.862Z,12.75
2022-08-17T11:55:34.477Z,10.75
2022-08-17T11:58:05.547Z,12.77
2022-08-17T12:00:59.537Z,13.07
2022-08-17T12:03:54.310Z,11.18
2022-08-17T12:06:42.811Z,12.15
2022-08-17T12:09:19.713Z,11.93
2022-08-17T12:12:13.164Z,11.30
2022-08-17T12:17:41.183Z,12.30
2022-08-17T12:20:17.636Z,15.60
2022-08-17T12:22:56.386Z,13.27
2022-08-17T12:25:33.954Z,12.98
2022-08-17T12:28:06.184Z,12.70
2022-08-17T12:30:37.235Z,13.95
2022-08-17T12:33:13.370Z,13.50
2022-08-17T12:35:59.993Z,12.98
2022-08-17T12:38:33.209Z,12.00
2022-08-17T12:41:26.390Z,10.77
2022-08-17T12:44:01.722Z,11.02
2022-08-17T12:46:34.759Z,12.65
2022-08-17T12:49:19.582Z,12.32
2022-08-17T12:51:49.374Z,10.68
2022-08-17T12:54:42.408Z,12.05
2022-08-17T12:57:19.924Z,12.73
2022-08-17T12:59:54.051Z,12.98
2022-08-17T13:02:32.812Z,13.27
2022-08-17T13:05:02.764Z,11.45
2022-08-17T13:07:35.619Z,12.98
2022-08-17T13:10:05.538Z,13.43
2022-08-17T13:12:37.036Z,14.15
2022-08-17T13:15:06.562Z,13.18
2022-08-17T13:17:37.422Z,13.30
2022-08-17T13:20:15.753Z,13.48
2022-08-17T13:22:45.280Z,11.43
2022-08-17T13:25:17.864Z,11.48
2022-08-17T13:27:49.035Z,12.02
2022-08-17T13:30:27.068Z,12.38
2022-08-17T13:32:57.931Z,10.52
2022-08-17T13:35:40.997Z,9.02
2022-08-17T13:38:14.690Z,10.35
2022-08-17T13:40:54.424Z,9.82
2022-08-17T13:43:46.230Z,10.27
2022-08-17T13:46:22.292Z,8.77
2022-08-17T13:49:01.662Z,8.90
2022-08-17T13:51:35.173Z,8.63
2022-08-17T13:54:21.994Z,8.68
2022-08-17T13:57:02.815Z,7.57
2022-08-17T13:59:54.348Z,6.78
2022-08-17T14:02:26.096Z,8.00
2022-08-17T14:04:57.207Z,10.20
2022-08-17T14:07:34.700Z,8.25
2022-08-17T14:10:09.296Z,9.00
2022-08-17T14:12:41.212Z,8.15
2022-08-17T14:15:13.319Z,8.25
2022-08-17T14:17:41.607Z,7.93
2022-08-17T14:20:14.193Z,7.32
2022-08-17T14:22:47.188Z,7.68
2022-08-17T14:25:20.782Z,7.47
2022-08-17T14:27:52.648Z,7.22
2022-08-17T14:30:26.761Z,7.20
2022-08-17T14:32:57.917Z,8.07
2022-08-17T14:35:28.063Z,7.88
2022-08-17T14:37:57.084Z,7.15
2022-08-17T14:40:26.898Z,7.70
2022-08-17T14:42:57.833Z,7.43
2022-08-17T14:45:32.778Z,7.40
2022-08-17T14:48:05.739Z,8.07
2022-08-17T14:50:36.110Z,7.10
2022-08-17T14:53:05.946Z,7.55
2022-08-17T14:55:34.578Z,6.85
2022-08-17T14:58:03.946Z,7.28
2022-08-17T15:00:34.467Z,7.00
2022-08-17T15:03:03.460Z,6.65
2022-08-17T15:05:34.974Z,6.15
2022-08-17T15:08:05.544Z,5.65
2022-08-17T15:10:34.775Z,5.80
2022-08-17T15:13:03.716Z,6.07
2022-08-17T15:15:34.163Z,6.07
2022-08-17T15:18:03.226Z,5.80
2022-08-17T15:20:31.994Z,5.57
2022-08-17T15:23:00.302Z,5.30
2022-08-17T15:25:32.502Z,5.88
2022-08-17T15:28:02.158Z,5.53
2022-08-17T15:30:31.783Z,5.15
2022-08-17T15:33:02.952Z,5.45
2022-08-17T15:35:34.770Z,5.43
2022-08-17T15:38:11.721Z,10.68
2022-08-17T15:40:45.824Z,8.35
2022-08-17T15:43:17.340Z,7.15
2022-08-17T15:45:56.808Z,11.60
2022-08-17T15:48:41.916Z,10.18
2022-08-17T15:51:18.491Z,12.52
2022-08-17T15:53:50.038Z,14.70
2022-08-17T15:56:19.363Z,14.13
2022-08-17T15:58:50.514Z,13.50
2022-08-17T16:02:23.214Z,12.75
2022-08-17T16:04:29.764Z,9.80
2022-08-17T16:06:59.972Z,8.60
2022-08-17T16:09:28.683Z,9.50
2022-08-17T16:11:56.962Z,11.68
2022-08-17T16:14:30.291Z,8.77
2022-08-17T16:17:02.317Z,9.27
2022-08-17T16:19:32.509Z,7.38
2022-08-17T16:22:01.168Z,7.15
2022-08-17T16:24:29.946Z,7.82
2022-08-17T16:26:58.887Z,8.23
2022-08-17T16:29:27.120Z,7.65
2022-08-17T16:31:56.070Z,5.82
2022-08-17T16:34:24.753Z,4.70
2022-08-17T16:36:56.462Z,5.45
2022-08-17T16:39:28.178Z,6.28
2022-08-17T16:41:57.031Z,4.82
2022-08-17T16:44:27.513Z,4.80
2022-08-17T16:46:55.971Z,3.67
2022-08-17T16:49:36.635Z,2.85
2022-08-17T16:52:11.255Z,2.65
2022-08-17T16:54:43.491Z,2.17
2022-08-17T16:57:12.744Z,1.70
2022-08-17T16:59:43.679Z,1.70
2022-08-17T17:02:16.545Z,1.60
2022-08-17T17:04:52.084Z,1.40
2022-08-17T17:07:41.184Z,1.20
2022-08-17T17:10:14.689Z,1.33
2022-08-17T17:13:01.859Z,1.40
2022-08-17T17:15:54.878Z,1.50
2022-08-17T17:18:37.391Z,1.90
2022-08-17T17:21:11.878Z,1.98
2022-08-17T17:23:52.214Z,2.28
2022-08-17T17:26:50.607Z,1.90
2022-08-17T17:29:46.520Z,2.47
2022-08-17T17:32:23.144Z,2.72
2022-08-17T17:35:07.179Z,3.08
2022-08-17T17:37:37.414Z,3.15
2022-08-17T17:40:16.984Z,3.28
2022-08-17T17:42:46.610Z,3.45
2022-08-17T17:45:21.670Z,3.33
2022-08-17T17:47:50.791Z,4.32
2022-08-17T17:50:36.158Z,4.30
2022-08-17T17:53:10.600Z,3.72
2022-08-17T17:55:54.885Z,4.47
2022-08-17T17:58:36.851Z,5.15
2022-08-17T18:01:43.707Z,5.28
2022-08-17T18:04:26.981Z,4.63
2022-08-17T18:07:16.441Z,4.95
2022-08-17T18:10:19.634Z,5.32
2022-08-17T18:13:11.724Z,4.85
2022-08-17T18:15:51.000Z,4.80
2022-08-17T18:18:38.655Z,4.95
2022-08-17T18:21:16.942Z,5.18
2022-08-17T18:23:53.550Z,4.85
2022-08-17T18:26:44.895Z,4.88
2022-08-17T18:29:34.243Z,5.25
2022-08-17T18:32:35.592Z,5.53
2022-08-17T18:35:29.172Z,5.43
2022-08-17T18:38:10.837Z,5.95
2022-08-17T18:40:40.013Z,5.75
2022-08-17T18:43:15.373Z,7.32
2022-08-17T18:45:48.773Z,5.88
2022-08-17T18:48:26.970Z,6.28
2022-08-17T18:50:59.455Z,7.32
2022-08-17T18:53:45.621Z,7.10
2022-08-17T18:56:33.573Z,6.25
2022-08-17T18:59:13.488Z,6.25
2022-08-17T19:02:02.020Z,5.80
2022-08-17T19:04:41.471Z,5.72
2022-08-17T19:07:27.986Z,6.40
2022-08-17T19:10:07.981Z,6.03
2022-08-17T19:12:46.733Z,5.55
2022-08-17T19:15:23.735Z,5.93
2022-08-17T19:18:05.015Z,7.07
2022-08-17T19:20:41.309Z,6.50
2022-08-17T19:23:21.233Z,6.15
2022-08-17T19:25:58.803Z,6.38
2022-08-17T19:28:34.341Z,6.43
2022-08-17T19:31:16.857Z,6.28
2022-08-17T19:33:48.126Z,7.00
2022-08-17T19:36:36.017Z,6.80
2022-08-17T19:39:12.969Z,6.50
2022-08-17T19:41:50.294Z,6.13
2022-08-17T19:44:38.185Z,5.72
2022-08-17T19:47:43.553Z,5.40
2022-08-17T19:50:22.601Z,5.47
2022-08-17T19:53:02.123Z,4.93
2022-08-17T19:55:43.812Z,5.18
2022-08-17T19:58:26.206Z,5.60
2022-08-17T20:00:56.137Z,5.18
2022-08-17T20:03:32.018Z,5.65
2022-08-17T20:06:14.252Z,5.35
2022-08-17T20:09:05.486Z,5.05
2022-08-17T20:11:42.967Z,5.07
2022-08-17T20:14:16.347Z,4.88
2022-08-17T20:16:45.295Z,5.03
2022-08-17T20:19:25.059Z,5.43
2022-08-17T20:22:06.183Z,4.43
2022-08-17T20:24:44.356Z,4.38
2022-08-17T20:27:19.133Z,4.68
2022-08-17T20:30:10.826Z,4.40
2022-08-17T20:32:55.675Z,4.22
2022-08-17T20:35:28.928Z,4.00
2022-08-17T20:38:02.984Z,4.25
2022-08-17T20:40:38.293Z,4.20
2022-08-17T20:43:48.965Z,4.00
2022-08-17T20:46:34.208Z,3.72
2022-08-17T20:49:21.168Z,4.10
2022-08-17T20:52:01.698Z,4.80
2022-08-17T20:54:46.970Z,5.25
2022-08-17T20:57:48.565Z,4.13
2022-08-17T21:00:47.280Z,3.53
2022-08-17T21:03:51.838Z,4.00
2022-08-17T21:06:26.646Z,4.15
2022-08-17T21:08:59.590Z,3.90
2022-08-17T21:12:03.982Z,3.55
2022-08-17T21:14:57.456Z,3.88
2022-08-17T21:17:50.119Z,3.60
2022-08-17T21:20:35.034Z,4.25
2022-08-17T21:23:42.367Z,3.78
2022-08-17T21:26:30.591Z,4.20
2022-08-17T21:29:31.967Z,2.97
2022-08-17T21:32:24.501Z,3.08
2022-08-17T21:35:48.594Z,3.40
2022-08-17T21:38:20.706Z,4.07
2022-08-17T21:40:53.725Z,3.55
2022-08-17T21:43:27.095Z,3.70
2022-08-17T21:46:02.740Z,4.47
2022-08-17T21:48:35.059Z,5.20
2022-08-17T21:51:12.190Z,3.70
2022-08-17T21:53:47.619Z,4.15
2022-08-17T21:56:26.586Z,3.75
2022-08-17T21:59:00.678Z,4.35
2022-08-17T22:01:34.820Z,3.97
2022-08-17T22:04:08.686Z,5.63
2022-08-17T22:06:40.792Z,4.63
2022-08-17T22:09:19.124Z,4.40
2022-08-17T22:11:59.445Z,5.18
2022-08-17T22:14:51.641Z,3.72
2022-08-17T22:17:26.300Z,4.13
2022-08-17T22:19:59.065Z,4.53
2022-08-17T22:22:35.610Z,4.68
2022-08-17T22:25:09.289Z,5.03
2022-08-17T22:27:50.630Z,4.50
2022-08-17T22:30:29.064Z,3.85
2022-08-17T22:33:00.971Z,4.57
2022-08-17T22:35:45.794Z,3.70
2022-08-17T22:38:33.547Z,4.20
2022-08-17T22:41:31.551Z,3.33
2022-08-17T22:44:09.136Z,4.72
2022-08-17T22:46:49.897Z,4.03
2022-08-17T22:49:27.405Z,4.72
2022-08-17T22:52:18.892Z,3.95
2022-08-17T22:55:09.187Z,3.30
2022-08-17T22:57:56.133Z,3.38
2022-08-17T23:00:37.522Z,5.72
2022-08-17T23:03:17.057Z,4.70
2022-08-17T23:05:54.378Z,4.03
2022-08-17T23:08:23.162Z,3.72
2022-08-17T23:10:52.002Z,4.20
2022-08-17T23:13:21.679Z,3.88
2022-08-17T23:15:53.241Z,3.95
2022-08-17T23:18:23.519Z,3.63
2022-08-17T23:20:53.762Z,4.90
2022-08-17T23:23:23.984Z,4.70
2022-08-17T23:25:52.950Z,5.03
2022-08-17T23:28:21.596Z,5.00
2022-08-17T23:30:50.464Z,5.75
2022-08-17T23:33:25.675Z,5.22
2022-08-17T23:35:55.926Z,5.50
2022-08-17T23:38:27.070Z,6.35
2022-08-17T23:43:40.201Z,5.18
2022-08-17T23:46:08.539Z,7.43
2022-08-17T23:48:37.459Z,7.53
2022-08-17T23:51:09.829Z,4.30
2022-08-17T23:53:44.744Z,5.75
2022-08-17T23:56:13.174Z,5.32
2022-08-17T23:58:45.009Z,5.78
